sensor_id;sensor_type;location;lat;lon;timestamp;P1;durP1;ratioP1;P2;durP2;ratioP2
11709;SDS011;5911;51.036;6.972;2022-12-18T00:01:26;16.07;;;10.07;;
11709;SDS011;5911;51.036;6.972;2022-12-18T00:03:55;18.70;;;11.23;;
11709;SDS011;5911;51.036;6.972;2022-12-18T00:06:24;14.73;;;9.93;;
11709;SDS011;5911;51.036;6.972;2022-12-18T00:08:55;16.20;;;10.10;;
11709;SDS011;5911;51.036;6.972;2022-12-18T00:11:24;17.70;;;10.43;;
11709;SDS011;5911;51.036;6.972;2022-12-18T00:13:54;15.13;;;9.23;;
11709;SDS011;5911;51.036;6.972;2022-12-18T00:16:24;13.17;;;8.83;;
11709;SDS011;5911;51.036;6.972;2022-12-18T00:18:54;13.27;;;8.83;;
11709;SDS011;5911;51.036;6.972;2022-12-18T00:21:23;12.73;;;8.97;;
11709;SDS011;5911;51.036;6.972;2022-12-18T00:23:51;14.57;;;8.70;;
11709;SDS011;5911;51.036;6.972;2022-12-18T00:26:22;12.97;;;8.60;;
11709;SDS011;5911;51.036;6.972;2022-12-18T00:28:57;10.57;;;7.83;;
11709;SDS011;5911;51.036;6.972;2022-12-18T00:31:26;10.37;;;8.40;;
11709;SDS011;5911;51.036;6.972;2022-12-18T00:33:55;13.47;;;8.57;;
11709;SDS011;5911;51.036;6.972;2022-12-18T00:36:24;15.40;;;8.67;;
11709;SDS011;5911;51.036;6.972;2022-12-18T00:38:53;13.57;;;8.30;;
11709;SDS011;5911;51.036;6.972;2022-12-18T00:41:23;12.00;;;7.70;;
11709;SDS011;5911;51.036;6.972;2022-12-18T00:44:09;13.77;;;8.27;;
11709;SDS011;5911;51.036;6.972;2022-12-18T00:49:07;14.00;;;9.13;;
11709;SDS011;5911;51.036;6.972;2022-12-18T00:51:35;12.07;;;8.00;;
11709;SDS011;5911;51.036;6.972;2022-12-18T00:54:03;12.53;;;8.83;;
11709;SDS011;5911;51.036;6.972;2022-12-18T00:56:33;13.43;;;9.73;;
11709;SDS011;5911;51.036;6.972;2022-12-18T00:59:14;13.07;;;9.23;;
11709;SDS011;5911;51.036;6.972;2022-12-18T01:01:42;13.07;;;8.70;;
11709;SDS011;5911;51.036;6.972;2022-12-18T01:04:10;12.77;;;8.70;;
11709;SDS011;5911;51.036;6.972;2022-12-18T01:06:38;13.57;;;8.37;;
11709;SDS011;5911;51.036;6.972;2022-12-18T01:09:05;11.30;;;8.07;;
11709;SDS011;5911;51.036;6.972;2022-12-18T01:11:36;13.83;;;9.10;;
11709;SDS011;5911;51.036;6.972;2022-12-18T01:14:04;16.73;;;8.80;;
11709;SDS011;5911;51.036;6.972;2022-12-18T01:16:32;10.67;;;7.07;;
11709;SDS011;5911;51.036;6.972;2022-12-18T01:19:03;11.03;;;7.60;;
11709;SDS011;5911;51.036;6.972;2022-12-18T01:21:31;12.40;;;8.37;;
11709;SDS011;5911;51.036;6.972;2022-12-18T01:24:02;10.73;;;7.70;;
11709;SDS011;5911;51.036;6.972;2022-12-18T01:26:31;11.57;;;7.90;;
11709;SDS011;5911;51.036;6.972;2022-12-18T01:29:00;11.57;;;8.23;;
11709;SDS011;5911;51.036;6.972;2022-12-18T01:31:28;12.47;;;8.40;;
11709;SDS011;5911;51.036;6.972;2022-12-18T01:34:01;11.97;;;7.63;;
11709;SDS011;5911;51.036;6.972;2022-12-18T01:36:30;10.77;;;7.50;;
11709;SDS011;5911;51.036;6.972;2022-12-18T01:39:02;10.50;;;7.87;;
11709;SDS011;5911;51.036;6.972;2022-12-18T01:41:33;12.23;;;7.70;;
11709;SDS011;5911;51.036;6.972;2022-12-18T01:47:22;10.40;;;7.77;;
11709;SDS011;5911;51.036;6.972;2022-12-18T01:49:53;12.30;;;8.63;;
11709;SDS011;5911;51.036;6.972;2022-12-18T01:52:24;11.33;;;8.00;;
11709;SDS011;5911;51.036;6.972;2022-12-18T01:54:55;12.43;;;8.67;;
11709;SDS011;5911;51.036;6.972;2022-12-18T01:57:25;13.47;;;8.63;;
11709;SDS011;5911;51.036;6.972;2022-12-18T01:59:54;12.40;;;8.63;;
11709;SDS011;5911;51.036;6.972;2022-12-18T02:02:27;11.50;;;8.27;;
11709;SDS011;5911;51.036;6.972;2022-12-18T02:04:58;11.63;;;8.47;;
11709;SDS011;5911;51.036;6.972;2022-12-18T02:07:29;11.33;;;7.77;;
11709;SDS011;5911;51.036;6.972;2022-12-18T02:10:06;12.17;;;9.10;;
11709;SDS011;5911;51.036;6.972;2022-12-18T02:12:42;14.33;;;8.97;;
11709;SDS011;5911;51.036;6.972;2022-12-18T02:15:13;14.47;;;9.00;;
11709;SDS011;5911;51.036;6.972;2022-12-18T02:17:47;10.23;;;8.40;;
11709;SDS011;5911;51.036;6.972;2022-12-18T02:20:20;12.53;;;8.93;;
11709;SDS011;5911;51.036;6.972;2022-12-18T02:23:00;14.10;;;8.90;;
11709;SDS011;5911;51.036;6.972;2022-12-18T02:25:40;13.27;;;8.93;;
11709;SDS011;5911;51.036;6.972;2022-12-18T02:28:28;12.80;;;9.10;;
11709;SDS011;5911;51.036;6.972;2022-12-18T02:31:03;13.67;;;9.53;;
11709;SDS011;5911;51.036;6.972;2022-12-18T02:33:35;12.00;;;7.87;;
11709;SDS011;5911;51.036;6.972;2022-12-18T02:36:04;13.50;;;8.77;;
11709;SDS011;5911;51.036;6.972;2022-12-18T02:38:33;13.93;;;8.90;;
11709;SDS011;5911;51.036;6.972;2022-12-18T02:41:10;11.83;;;8.50;;
11709;SDS011;5911;51.036;6.972;2022-12-18T02:43:40;14.87;;;8.97;;
11709;SDS011;5911;51.036;6.972;2022-12-18T02:46:26;11.70;;;8.37;;
11709;SDS011;5911;51.036;6.972;2022-12-18T02:49:04;12.73;;;8.07;;
11709;SDS011;5911;51.036;6.972;2022-12-18T02:51:40;12.53;;;8.47;;
11709;SDS011;5911;51.036;6.972;2022-12-18T02:54:18;13.87;;;8.20;;
11709;SDS011;5911;51.036;6.972;2022-12-18T02:56:55;10.90;;;7.43;;
11709;SDS011;5911;51.036;6.972;2022-12-18T02:59:32;11.93;;;8.53;;
11709;SDS011;5911;51.036;6.972;2022-12-18T03:02:07;11.03;;;8.07;;
11709;SDS011;5911;51.036;6.972;2022-12-18T03:04:46;11.10;;;7.40;;
11709;SDS011;5911;51.036;6.972;2022-12-18T03:07:21;11.90;;;7.83;;
11709;SDS011;5911;51.036;6.972;2022-12-18T03:10:04;10.57;;;7.80;;
11709;SDS011;5911;51.036;6.972;2022-12-18T03:12:37;12.13;;;8.60;;
11709;SDS011;5911;51.036;6.972;2022-12-18T03:15:12;11.37;;;8.17;;
11709;SDS011;5911;51.036;6.972;2022-12-18T03:17:49;10.23;;;7.30;;
11709;SDS011;5911;51.036;6.972;2022-12-18T03:20:24;12.20;;;7.50;;
11709;SDS011;5911;51.036;6.972;2022-12-18T03:22:57;11.10;;;7.50;;
11709;SDS011;5911;51.036;6.972;2022-12-18T03:25:30;11.57;;;8.47;;
11709;SDS011;5911;51.036;6.972;2022-12-18T03:28:01;13.20;;;7.97;;
11709;SDS011;5911;51.036;6.972;2022-12-18T03:30:30;12.60;;;8.20;;
11709;SDS011;5911;51.036;6.972;2022-12-18T03:33:01;10.87;;;7.67;;
11709;SDS011;5911;51.036;6.972;2022-12-18T03:35:35;11.40;;;7.37;;
11709;SDS011;5911;51.036;6.972;2022-12-18T03:38:06;10.60;;;7.43;;
11709;SDS011;5911;51.036;6.972;2022-12-18T03:40:43;8.47;;;6.63;;
11709;SDS011;5911;51.036;6.972;2022-12-18T03:43:20;12.57;;;8.10;;
11709;SDS011;5911;51.036;6.972;2022-12-18T03:46:00;10.27;;;6.63;;
11709;SDS011;5911;51.036;6.972;2022-12-18T03:48:33;11.13;;;7.60;;
11709;SDS011;5911;51.036;6.972;2022-12-18T03:51:10;11.83;;;7.30;;
11709;SDS011;5911;51.036;6.972;2022-12-18T03:53:45;11.97;;;7.53;;
11709;SDS011;5911;51.036;6.972;2022-12-18T03:56:20;9.73;;;7.20;;
11709;SDS011;5911;51.036;6.972;2022-12-18T03:58:54;12.93;;;7.87;;
11709;SDS011;5911;51.036;6.972;2022-12-18T04:01:28;10.20;;;7.40;;
11709;SDS011;5911;51.036;6.972;2022-12-18T04:03:59;10.03;;;7.30;;
11709;SDS011;5911;51.036;6.972;2022-12-18T04:06:35;11.30;;;7.63;;
11709;SDS011;5911;51.036;6.972;2022-12-18T04:09:04;13.33;;;7.70;;
11709;SDS011;5911;51.036;6.972;2022-12-18T04:11:37;10.90;;;8.00;;
11709;SDS011;5911;51.036;6.972;2022-12-18T04:14:06;10.20;;;7.03;;
11709;SDS011;5911;51.036;6.972;2022-12-18T04:16:41;11.97;;;7.07;;
11709;SDS011;5911;51.036;6.972;2022-12-18T04:19:12;10.23;;;7.50;;
11709;SDS011;5911;51.036;6.972;2022-12-18T04:21:42;10.60;;;7.10;;
11709;SDS011;5911;51.036;6.972;2022-12-18T04:24:12;10.07;;;7.10;;
11709;SDS011;5911;51.036;6.972;2022-12-18T04:26:49;8.37;;;7.10;;
11709;SDS011;5911;51.036;6.972;2022-12-18T04:29:23;9.87;;;6.63;;
11709;SDS011;5911;51.036;6.972;2022-12-18T04:31:51;10.27;;;7.17;;
11709;SDS011;5911;51.036;6.972;2022-12-18T04:34:19;12.93;;;7.37;;
11709;SDS011;5911;51.036;6.972;2022-12-18T04:36:51;9.70;;;6.80;;
11709;SDS011;5911;51.036;6.972;2022-12-18T04:39:20;11.37;;;7.10;;
11709;SDS011;5911;51.036;6.972;2022-12-18T04:41:50;11.03;;;7.13;;
11709;SDS011;5911;51.036;6.972;2022-12-18T04:44:18;11.07;;;7.27;;
11709;SDS011;5911;51.036;6.972;2022-12-18T04:46:47;10.47;;;7.13;;
11709;SDS011;5911;51.036;6.972;2022-12-18T04:49:14;11.53;;;7.37;;
11709;SDS011;5911;51.036;6.972;2022-12-18T04:51:42;8.63;;;6.90;;
11709;SDS011;5911;51.036;6.972;2022-12-18T04:54:10;10.87;;;7.87;;
11709;SDS011;5911;51.036;6.972;2022-12-18T04:56:38;10.50;;;7.27;;
11709;SDS011;5911;51.036;6.972;2022-12-18T04:59:06;9.93;;;7.03;;
11709;SDS011;5911;51.036;6.972;2022-12-18T05:01:34;11.13;;;7.53;;
11709;SDS011;5911;51.036;6.972;2022-12-18T05:04:04;10.20;;;7.30;;
11709;SDS011;5911;51.036;6.972;2022-12-18T05:06:31;10.23;;;6.90;;
11709;SDS011;5911;51.036;6.972;2022-12-18T05:08:59;10.77;;;7.20;;
11709;SDS011;5911;51.036;6.972;2022-12-18T05:11:27;9.87;;;7.00;;
11709;SDS011;5911;51.036;6.972;2022-12-18T05:13:58;10.50;;;6.97;;
11709;SDS011;5911;51.036;6.972;2022-12-18T05:16:25;11.23;;;7.67;;
11709;SDS011;5911;51.036;6.972;2022-12-18T05:18:53;11.47;;;7.83;;
11709;SDS011;5911;51.036;6.972;2022-12-18T05:21:22;9.77;;;6.23;;
11709;SDS011;5911;51.036;6.972;2022-12-18T05:23:50;11.33;;;7.50;;
11709;SDS011;5911;51.036;6.972;2022-12-18T05:26:18;11.40;;;7.57;;
11709;SDS011;5911;51.036;6.972;2022-12-18T05:28:46;10.97;;;7.37;;
11709;SDS011;5911;51.036;6.972;2022-12-18T05:31:14;8.83;;;6.47;;
11709;SDS011;5911;51.036;6.972;2022-12-18T05:33:42;10.03;;;6.67;;
11709;SDS011;5911;51.036;6.972;2022-12-18T05:36:09;11.10;;;7.03;;
11709;SDS011;5911;51.036;6.972;2022-12-18T05:38:39;10.37;;;7.10;;
11709;SDS011;5911;51.036;6.972;2022-12-18T05:41:08;11.27;;;7.10;;
11709;SDS011;5911;51.036;6.972;2022-12-18T05:43:36;13.87;;;7.90;;
11709;SDS011;5911;51.036;6.972;2022-12-18T05:46:06;10.57;;;6.90;;
11709;SDS011;5911;51.036;6.972;2022-12-18T05:48:35;10.23;;;7.03;;
11709;SDS011;5911;51.036;6.972;2022-12-18T05:51:03;9.67;;;6.97;;
11709;SDS011;5911;51.036;6.972;2022-12-18T05:53:33;14.57;;;8.13;;
11709;SDS011;5911;51.036;6.972;2022-12-18T05:56:04;10.57;;;6.90;;
11709;SDS011;5911;51.036;6.972;2022-12-18T05:58:34;8.67;;;7.10;;
11709;SDS011;5911;51.036;6.972;2022-12-18T06:01:06;8.60;;;6.13;;
11709;SDS011;5911;51.036;6.972;2022-12-18T06:03:35;12.37;;;7.97;;
11709;SDS011;5911;51.036;6.972;2022-12-18T06:06:04;10.73;;;7.60;;
11709;SDS011;5911;51.036;6.972;2022-12-18T06:08:39;11.33;;;6.97;;
11709;SDS011;5911;51.036;6.972;2022-12-18T06:11:15;12.27;;;7.70;;
11709;SDS011;5911;51.036;6.972;2022-12-18T06:13:44;11.20;;;7.47;;
11709;SDS011;5911;51.036;6.972;2022-12-18T06:16:12;11.70;;;7.00;;
11709;SDS011;5911;51.036;6.972;2022-12-18T06:18:40;10.43;;;7.17;;
11709;SDS011;5911;51.036;6.972;2022-12-18T06:21:08;11.63;;;7.77;;
11709;SDS011;5911;51.036;6.972;2022-12-18T06:23:36;10.10;;;6.93;;
11709;SDS011;5911;51.036;6.972;2022-12-18T06:26:05;10.57;;;7.50;;
11709;SDS011;5911;51.036;6.972;2022-12-18T06:28:34;12.23;;;7.90;;
11709;SDS011;5911;51.036;6.972;2022-12-18T06:31:03;10.13;;;8.00;;
11709;SDS011;5911;51.036;6.972;2022-12-18T06:33:31;10.63;;;7.87;;
11709;SDS011;5911;51.036;6.972;2022-12-18T06:36:00;10.97;;;7.63;;
11709;SDS011;5911;51.036;6.972;2022-12-18T06:38:29;12.33;;;7.87;;
11709;SDS011;5911;51.036;6.972;2022-12-18T06:40:58;12.20;;;7.87;;
11709;SDS011;5911;51.036;6.972;2022-12-18T06:43:25;12.20;;;8.27;;
11709;SDS011;5911;51.036;6.972;2022-12-18T06:45:58;11.17;;;7.53;;
11709;SDS011;5911;51.036;6.972;2022-12-18T06:48:27;11.80;;;8.53;;
11709;SDS011;5911;51.036;6.972;2022-12-18T06:50:55;14.10;;;7.83;;
11709;SDS011;5911;51.036;6.972;2022-12-18T06:53:25;11.40;;;7.83;;
11709;SDS011;5911;51.036;6.972;2022-12-18T06:55:59;12.53;;;7.80;;
11709;SDS011;5911;51.036;6.972;2022-12-18T06:58:36;11.73;;;8.20;;
11709;SDS011;5911;51.036;6.972;2022-12-18T07:01:06;13.03;;;8.17;;
11709;SDS011;5911;51.036;6.972;2022-12-18T07:03:36;11.83;;;8.90;;
11709;SDS011;5911;51.036;6.972;2022-12-18T07:06:05;10.33;;;7.57;;
11709;SDS011;5911;51.036;6.972;2022-12-18T07:08:34;10.57;;;7.60;;
11709;SDS011;5911;51.036;6.972;2022-12-18T07:11:03;12.23;;;8.20;;
11709;SDS011;5911;51.036;6.972;2022-12-18T07:13:31;13.13;;;7.97;;
11709;SDS011;5911;51.036;6.972;2022-12-18T07:16:08;11.60;;;8.50;;
11709;SDS011;5911;51.036;6.972;2022-12-18T07:18:47;12.03;;;8.60;;
11709;SDS011;5911;51.036;6.972;2022-12-18T07:21:16;13.33;;;7.70;;
11709;SDS011;5911;51.036;6.972;2022-12-18T07:23:45;14.00;;;8.80;;
11709;SDS011;5911;51.036;6.972;2022-12-18T07:26:15;13.33;;;8.47;;
11709;SDS011;5911;51.036;6.972;2022-12-18T07:28:44;13.33;;;8.73;;
11709;SDS011;5911;51.036;6.972;2022-12-18T07:31:14;13.53;;;9.13;;
11709;SDS011;5911;51.036;6.972;2022-12-18T07:33:44;14.87;;;8.53;;
11709;SDS011;5911;51.036;6.972;2022-12-18T07:36:13;12.20;;;7.93;;
11709;SDS011;5911;51.036;6.972;2022-12-18T07:38:41;13.67;;;8.83;;
11709;SDS011;5911;51.036;6.972;2022-12-18T07:41:10;13.00;;;8.40;;
11709;SDS011;5911;51.036;6.972;2022-12-18T07:43:40;13.27;;;8.87;;
11709;SDS011;5911;51.036;6.972;2022-12-18T07:46:09;13.23;;;9.27;;
11709;SDS011;5911;51.036;6.972;2022-12-18T07:48:40;14.97;;;9.03;;
11709;SDS011;5911;51.036;6.972;2022-12-18T07:51:13;15.27;;;10.60;;
11709;SDS011;5911;51.036;6.972;2022-12-18T07:53:42;14.77;;;9.70;;
11709;SDS011;5911;51.036;6.972;2022-12-18T07:56:10;16.97;;;10.00;;
11709;SDS011;5911;51.036;6.972;2022-12-18T07:58:53;14.10;;;8.50;;
11709;SDS011;5911;51.036;6.972;2022-12-18T08:01:21;12.67;;;8.40;;
11709;SDS011;5911;51.036;6.972;2022-12-18T08:03:50;13.80;;;8.90;;
11709;SDS011;5911;51.036;6.972;2022-12-18T08:06:18;13.53;;;9.17;;
11709;SDS011;5911;51.036;6.972;2022-12-18T08:08:50;11.63;;;8.57;;
11709;SDS011;5911;51.036;6.972;2022-12-18T08:11:19;15.17;;;9.47;;
11709;SDS011;5911;51.036;6.972;2022-12-18T08:13:47;12.87;;;8.63;;
11709;SDS011;5911;51.036;6.972;2022-12-18T08:16:15;15.17;;;9.23;;
11709;SDS011;5911;51.036;6.972;2022-12-18T08:18:43;14.37;;;8.57;;
11709;SDS011;5911;51.036;6.972;2022-12-18T08:21:14;14.60;;;9.43;;
11709;SDS011;5911;51.036;6.972;2022-12-18T08:23:43;13.40;;;8.70;;
11709;SDS011;5911;51.036;6.972;2022-12-18T08:26:12;15.03;;;9.53;;
11709;SDS011;5911;51.036;6.972;2022-12-18T08:28:40;16.83;;;9.93;;
11709;SDS011;5911;51.036;6.972;2022-12-18T08:31:08;12.67;;;8.03;;
11709;SDS011;5911;51.036;6.972;2022-12-18T08:33:37;12.23;;;8.13;;
11709;SDS011;5911;51.036;6.972;2022-12-18T08:36:07;14.77;;;9.00;;
11709;SDS011;5911;51.036;6.972;2022-12-18T08:38:38;12.57;;;8.40;;
11709;SDS011;5911;51.036;6.972;2022-12-18T08:41:07;13.90;;;8.63;;
11709;SDS011;5911;51.036;6.972;2022-12-18T08:43:37;13.63;;;8.80;;
11709;SDS011;5911;51.036;6.972;2022-12-18T08:46:23;14.00;;;9.30;;
11709;SDS011;5911;51.036;6.972;2022-12-18T08:48:53;12.37;;;8.90;;
11709;SDS011;5911;51.036;6.972;2022-12-18T08:51:21;13.37;;;9.17;;
11709;SDS011;5911;51.036;6.972;2022-12-18T08:53:51;13.47;;;9.37;;
11709;SDS011;5911;51.036;6.972;2022-12-18T08:56:19;12.80;;;8.63;;
11709;SDS011;5911;51.036;6.972;2022-12-18T08:58:47;12.87;;;9.00;;
11709;SDS011;5911;51.036;6.972;2022-12-18T09:01:18;14.20;;;8.70;;
11709;SDS011;5911;51.036;6.972;2022-12-18T09:03:46;14.10;;;9.17;;
11709;SDS011;5911;51.036;6.972;2022-12-18T09:06:14;14.03;;;9.13;;
11709;SDS011;5911;51.036;6.972;2022-12-18T09:08:43;11.90;;;8.47;;
11709;SDS011;5911;51.036;6.972;2022-12-18T09:11:18;13.20;;;8.57;;
11709;SDS011;5911;51.036;6.972;2022-12-18T09:13:47;12.80;;;8.40;;
11709;SDS011;5911;51.036;6.972;2022-12-18T09:16:15;15.03;;;9.73;;
11709;SDS011;5911;51.036;6.972;2022-12-18T09:18:44;15.70;;;10.23;;
11709;SDS011;5911;51.036;6.972;2022-12-18T09:21:13;14.13;;;9.20;;
11709;SDS011;5911;51.036;6.972;2022-12-18T09:23:42;14.50;;;9.93;;
11709;SDS011;5911;51.036;6.972;2022-12-18T09:26:11;13.73;;;9.40;;
11709;SDS011;5911;51.036;6.972;2022-12-18T09:28:40;16.60;;;9.77;;
11709;SDS011;5911;51.036;6.972;2022-12-18T09:31:10;15.53;;;9.33;;
11709;SDS011;5911;51.036;6.972;2022-12-18T09:33:38;13.03;;;8.93;;
11709;SDS011;5911;51.036;6.972;2022-12-18T09:36:07;15.50;;;10.93;;
11709;SDS011;5911;51.036;6.972;2022-12-18T09:38:42;16.73;;;10.57;;
11709;SDS011;5911;51.036;6.972;2022-12-18T09:41:15;14.63;;;9.87;;
11709;SDS011;5911;51.036;6.972;2022-12-18T09:43:57;14.40;;;9.50;;
11709;SDS011;5911;51.036;6.972;2022-12-18T09:46:30;14.73;;;10.40;;
11709;SDS011;5911;51.036;6.972;2022-12-18T09:49:03;18.43;;;11.37;;
11709;SDS011;5911;51.036;6.972;2022-12-18T09:51:39;16.43;;;9.97;;
11709;SDS011;5911;51.036;6.972;2022-12-18T09:54:12;15.77;;;10.37;;
11709;SDS011;5911;51.036;6.972;2022-12-18T09:56:46;15.03;;;9.53;;
11709;SDS011;5911;51.036;6.972;2022-12-18T09:59:18;13.90;;;9.73;;
11709;SDS011;5911;51.036;6.972;2022-12-18T10:01:51;16.97;;;10.20;;
11709;SDS011;5911;51.036;6.972;2022-12-18T10:04:19;14.87;;;9.83;;
11709;SDS011;5911;51.036;6.972;2022-12-18T10:06:49;13.70;;;9.03;;
11709;SDS011;5911;51.036;6.972;2022-12-18T10:09:26;12.47;;;9.00;;
11709;SDS011;5911;51.036;6.972;2022-12-18T10:12:00;12.77;;;8.87;;
11709;SDS011;5911;51.036;6.972;2022-12-18T10:14:40;14.27;;;9.57;;
11709;SDS011;5911;51.036;6.972;2022-12-18T10:17:17;14.67;;;9.03;;
11709;SDS011;5911;51.036;6.972;2022-12-18T10:19:54;13.30;;;8.63;;
11709;SDS011;5911;51.036;6.972;2022-12-18T10:22:34;13.70;;;8.53;;
11709;SDS011;5911;51.036;6.972;2022-12-18T10:25:19;13.67;;;9.03;;
11709;SDS011;5911;51.036;6.972;2022-12-18T10:27:51;12.80;;;8.90;;
11709;SDS011;5911;51.036;6.972;2022-12-18T10:30:22;15.17;;;9.10;;
11709;SDS011;5911;51.036;6.972;2022-12-18T10:32:51;13.70;;;8.93;;
11709;SDS011;5911;51.036;6.972;2022-12-18T10:35:21;12.43;;;8.70;;
11709;SDS011;5911;51.036;6.972;2022-12-18T10:38:00;14.13;;;9.10;;
11709;SDS011;5911;51.036;6.972;2022-12-18T10:40:35;15.00;;;9.33;;
11709;SDS011;5911;51.036;6.972;2022-12-18T10:43:19;14.43;;;9.37;;
11709;SDS011;5911;51.036;6.972;2022-12-18T10:46:00;14.73;;;9.27;;
11709;SDS011;5911;51.036;6.972;2022-12-18T10:48:32;14.07;;;9.60;;
11709;SDS011;5911;51.036;6.972;2022-12-18T10:51:01;15.03;;;9.77;;
11709;SDS011;5911;51.036;6.972;2022-12-18T10:53:39;15.13;;;10.07;;
11709;SDS011;5911;51.036;6.972;2022-12-18T10:56:09;12.80;;;9.20;;
11709;SDS011;5911;51.036;6.972;2022-12-18T10:58:38;12.87;;;9.10;;
11709;SDS011;5911;51.036;6.972;2022-12-18T11:01:09;15.40;;;10.27;;
11709;SDS011;5911;51.036;6.972;2022-12-18T11:03:39;15.23;;;9.83;;
11709;SDS011;5911;51.036;6.972;2022-12-18T11:06:09;14.93;;;9.83;;
11709;SDS011;5911;51.036;6.972;2022-12-18T11:08:38;14.27;;;10.43;;
11709;SDS011;5911;51.036;6.972;2022-12-18T11:11:15;14.17;;;9.57;;
11709;SDS011;5911;51.036;6.972;2022-12-18T11:13:52;14.83;;;9.23;;
11709;SDS011;5911;51.036;6.972;2022-12-18T11:16:28;13.57;;;9.20;;
11709;SDS011;5911;51.036;6.972;2022-12-18T11:19:08;14.63;;;9.53;;
11709;SDS011;5911;51.036;6.972;2022-12-18T11:21:47;16.70;;;10.03;;
11709;SDS011;5911;51.036;6.972;2022-12-18T11:24:18;14.33;;;10.20;;
11709;SDS011;5911;51.036;6.972;2022-12-18T11:26:50;14.60;;;10.40;;
11709;SDS011;5911;51.036;6.972;2022-12-18T11:29:27;16.27;;;10.57;;
11709;SDS011;5911;51.036;6.972;2022-12-18T11:32:26;14.90;;;10.80;;
11709;SDS011;5911;51.036;6.972;2022-12-18T11:35:00;13.30;;;9.40;;
11709;SDS011;5911;51.036;6.972;2022-12-18T11:37:35;16.53;;;10.13;;
11709;SDS011;5911;51.036;6.972;2022-12-18T11:40:09;16.83;;;10.73;;
11709;SDS011;5911;51.036;6.972;2022-12-18T11:42:41;15.03;;;10.83;;
11709;SDS011;5911;51.036;6.972;2022-12-18T11:45:21;15.03;;;10.13;;
11709;SDS011;5911;51.036;6.972;2022-12-18T11:47:56;18.83;;;10.73;;
11709;SDS011;5911;51.036;6.972;2022-12-18T11:50:28;15.70;;;10.50;;
11709;SDS011;5911;51.036;6.972;2022-12-18T11:53:00;13.53;;;9.80;;
11709;SDS011;5911;51.036;6.972;2022-12-18T11:55:41;14.60;;;10.40;;
11709;SDS011;5911;51.036;6.972;2022-12-18T11:58:20;20.97;;;11.43;;
11709;SDS011;5911;51.036;6.972;2022-12-18T12:01:01;16.60;;;10.90;;
11709;SDS011;5911;51.036;6.972;2022-12-18T12:03:52;16.23;;;10.43;;
11709;SDS011;5911;51.036;6.972;2022-12-18T12:06:30;15.27;;;10.37;;
11709;SDS011;5911;51.036;6.972;2022-12-18T12:09:07;18.67;;;12.00;;
11709;SDS011;5911;51.036;6.972;2022-12-18T12:11:47;15.47;;;10.70;;
11709;SDS011;5911;51.036;6.972;2022-12-18T12:14:26;17.13;;;11.13;;
11709;SDS011;5911;51.036;6.972;2022-12-18T12:17:06;18.27;;;11.07;;
11709;SDS011;5911;51.036;6.972;2022-12-18T12:19:42;17.43;;;11.40;;
11709;SDS011;5911;51.036;6.972;2022-12-18T12:22:20;14.17;;;10.90;;
11709;SDS011;5911;51.036;6.972;2022-12-18T12:24:58;16.73;;;12.10;;
11709;SDS011;5911;51.036;6.972;2022-12-18T12:27:43;15.53;;;11.33;;
11709;SDS011;5911;51.036;6.972;2022-12-18T12:30:18;15.93;;;10.97;;
11709;SDS011;5911;51.036;6.972;2022-12-18T12:32:51;16.97;;;11.70;;
11709;SDS011;5911;51.036;6.972;2022-12-18T12:35:35;17.37;;;11.13;;
11709;SDS011;5911;51.036;6.972;2022-12-18T12:38:12;20.97;;;12.00;;
11709;SDS011;5911;51.036;6.972;2022-12-18T12:40:44;18.70;;;11.63;;
11709;SDS011;5911;51.036;6.972;2022-12-18T12:43:24;22.17;;;12.07;;
11709;SDS011;5911;51.036;6.972;2022-12-18T12:45:56;20.53;;;13.27;;
11709;SDS011;5911;51.036;6.972;2022-12-18T12:48:37;18.97;;;12.60;;
11709;SDS011;5911;51.036;6.972;2022-12-18T12:51:12;18.47;;;12.43;;
11709;SDS011;5911;51.036;6.972;2022-12-18T12:53:46;18.20;;;12.23;;
11709;SDS011;5911;51.036;6.972;2022-12-18T12:56:15;17.50;;;12.60;;
11709;SDS011;5911;51.036;6.972;2022-12-18T12:58:48;17.03;;;12.67;;
11709;SDS011;5911;51.036;6.972;2022-12-18T13:01:25;20.27;;;12.23;;
11709;SDS011;5911;51.036;6.972;2022-12-18T13:04:03;17.83;;;12.50;;
11709;SDS011;5911;51.036;6.972;2022-12-18T13:06:44;19.80;;;12.77;;
11709;SDS011;5911;51.036;6.972;2022-12-18T13:09:19;20.60;;;14.33;;
11709;SDS011;5911;51.036;6.972;2022-12-18T13:11:47;20.17;;;13.33;;
11709;SDS011;5911;51.036;6.972;2022-12-18T13:14:34;19.23;;;13.00;;
11709;SDS011;5911;51.036;6.972;2022-12-18T13:20:04;19.70;;;12.67;;
11709;SDS011;5911;51.036;6.972;2022-12-18T13:22:38;18.17;;;12.67;;
11709;SDS011;5911;51.036;6.972;2022-12-18T13:25:27;17.67;;;12.83;;
11709;SDS011;5911;51.036;6.972;2022-12-18T13:28:04;20.77;;;14.03;;
11709;SDS011;5911;51.036;6.972;2022-12-18T13:30:45;21.93;;;14.17;;
11709;SDS011;5911;51.036;6.972;2022-12-18T13:33:35;20.77;;;12.43;;
11709;SDS011;5911;51.036;6.972;2022-12-18T13:36:29;21.80;;;13.67;;
11709;SDS011;5911;51.036;6.972;2022-12-18T13:39:15;21.13;;;14.37;;
11709;SDS011;5911;51.036;6.972;2022-12-18T13:48:16;19.10;;;13.20;;
11709;SDS011;5911;51.036;6.972;2022-12-18T13:50:48;22.33;;;13.73;;
11709;SDS011;5911;51.036;6.972;2022-12-18T13:53:21;22.53;;;15.30;;
11709;SDS011;5911;51.036;6.972;2022-12-18T13:55:54;20.50;;;14.47;;
11709;SDS011;5911;51.036;6.972;2022-12-18T13:58:21;21.60;;;14.53;;
11709;SDS011;5911;51.036;6.972;2022-12-18T14:00:49;21.83;;;15.53;;
11709;SDS011;5911;51.036;6.972;2022-12-18T14:03:20;20.60;;;13.80;;
11709;SDS011;5911;51.036;6.972;2022-12-18T14:05:54;20.63;;;14.27;;
11709;SDS011;5911;51.036;6.972;2022-12-18T14:08:27;19.80;;;14.17;;
11709;SDS011;5911;51.036;6.972;2022-12-18T14:11:01;23.40;;;14.33;;
11709;SDS011;5911;51.036;6.972;2022-12-18T14:13:33;18.77;;;13.73;;
11709;SDS011;5911;51.036;6.972;2022-12-18T14:16:04;22.17;;;14.20;;
11709;SDS011;5911;51.036;6.972;2022-12-18T14:18:38;21.23;;;14.47;;
11709;SDS011;5911;51.036;6.972;2022-12-18T14:21:18;23.00;;;15.33;;
11709;SDS011;5911;51.036;6.972;2022-12-18T14:23:49;24.63;;;14.97;;
11709;SDS011;5911;51.036;6.972;2022-12-18T14:26:31;21.93;;;14.33;;
11709;SDS011;5911;51.036;6.972;2022-12-18T14:29:00;23.53;;;15.53;;
11709;SDS011;5911;51.036;6.972;2022-12-18T14:31:45;24.97;;;15.37;;
11709;SDS011;5911;51.036;6.972;2022-12-18T14:34:15;21.33;;;14.23;;
11709;SDS011;5911;51.036;6.972;2022-12-18T14:36:51;21.10;;;14.63;;
11709;SDS011;5911;51.036;6.972;2022-12-18T14:39:20;24.53;;;15.10;;
11709;SDS011;5911;51.036;6.972;2022-12-18T14:41:50;23.73;;;14.67;;
11709;SDS011;5911;51.036;6.972;2022-12-18T14:44:19;21.60;;;14.13;;
11709;SDS011;5911;51.036;6.972;2022-12-18T14:46:47;23.70;;;14.57;;
11709;SDS011;5911;51.036;6.972;2022-12-18T14:49:18;20.17;;;13.73;;
11709;SDS011;5911;51.036;6.972;2022-12-18T14:51:50;21.17;;;14.53;;
11709;SDS011;5911;51.036;6.972;2022-12-18T14:54:21;24.17;;;15.30;;
11709;SDS011;5911;51.036;6.972;2022-12-18T14:56:53;25.43;;;14.57;;
11709;SDS011;5911;51.036;6.972;2022-12-18T14:59:26;22.70;;;14.57;;
11709;SDS011;5911;51.036;6.972;2022-12-18T15:01:57;23.87;;;15.13;;
11709;SDS011;5911;51.036;6.972;2022-12-18T15:04:32;23.93;;;15.37;;
11709;SDS011;5911;51.036;6.972;2022-12-18T15:07:02;21.60;;;14.97;;
11709;SDS011;5911;51.036;6.972;2022-12-18T15:09:31;22.47;;;15.00;;
11709;SDS011;5911;51.036;6.972;2022-12-18T15:12:01;21.73;;;14.47;;
11709;SDS011;5911;51.036;6.972;2022-12-18T15:14:38;23.63;;;15.70;;
11709;SDS011;5911;51.036;6.972;2022-12-18T15:17:14;23.90;;;16.60;;
11709;SDS011;5911;51.036;6.972;2022-12-18T15:19:44;23.77;;;15.40;;
11709;SDS011;5911;51.036;6.972;2022-12-18T15:22:21;23.17;;;15.03;;
11709;SDS011;5911;51.036;6.972;2022-12-18T15:24:53;23.13;;;15.47;;
11709;SDS011;5911;51.036;6.972;2022-12-18T15:27:24;21.30;;;14.70;;
11709;SDS011;5911;51.036;6.972;2022-12-18T15:32:45;21.53;;;14.83;;